sensor_id;sensor_type;location;lat;lon;timestamp;temperature;humidity
17795;DHT22;9021;50.882;4.326;2023-06-10T00:00:46;23.90;78.20
17795;DHT22;9021;50.882;4.326;2023-06-10T00:03:11;24.00;78.20
17795;DHT22;9021;50.882;4.326;2023-06-10T00:05:37;23.90;78.20
17795;DHT22;9021;50.882;4.326;2023-06-10T00:08:05;23.90;78.50
17795;DHT22;9021;50.882;4.326;2023-06-10T00:10:34;23.80;78.20
17795;DHT22;9021;50.882;4.326;2023-06-10T00:13:00;23.80;79.20
17795;DHT22;9021;50.882;4.326;2023-06-10T00:15:26;23.80;78.90
17795;DHT22;9021;50.882;4.326;2023-06-10T00:17:54;24.20;79.30
17795;DHT22;9021;50.882;4.326;2023-06-10T00:20:20;23.80;79.00
17795;DHT22;9021;50.882;4.326;2023-06-10T00:22:49;23.80;79.10
17795;DHT22;9021;50.882;4.326;2023-06-10T00:25:14;23.80;79.20
17795;DHT22;9021;50.882;4.326;2023-06-10T00:27:40;23.80;78.80
17795;DHT22;9021;50.882;4.326;2023-06-10T00:30:05;23.80;78.90
17795;DHT22;9021;50.882;4.326;2023-06-10T00:32:35;23.90;78.30
17795;DHT22;9021;50.882;4.326;2023-06-10T00:35:01;23.90;79.10
17795;DHT22;9021;50.882;4.326;2023-06-10T00:37:26;23.80;79.10
17795;DHT22;9021;50.882;4.326;2023-06-10T00:39:55;23.80;78.40
17795;DHT22;9021;50.882;4.326;2023-06-10T00:42:21;23.80;79.50
17795;DHT22;9021;50.882;4.326;2023-06-10T00:44:53;23.80;79.60
17795;DHT22;9021;50.882;4.326;2023-06-10T00:47:19;23.80;79.80
17795;DHT22;9021;50.882;4.326;2023-06-10T00:49:46;23.70;80.20
17795;DHT22;9021;50.882;4.326;2023-06-10T00:52:11;23.70;80.20
17795;DHT22;9021;50.882;4.326;2023-06-10T00:54:37;23.70;80.00
17795;DHT22;9021;50.882;4.326;2023-06-10T00:57:04;23.60;80.20
17795;DHT22;9021;50.882;4.326;2023-06-10T00:59:29;23.60;81.70
17795;DHT22;9021;50.882;4.326;2023-06-10T01:01:56;23.50;80.90
17795;DHT22;9021;50.882;4.326;2023-06-10T01:04:22;23.50;81.00
17795;DHT22;9021;50.882;4.326;2023-06-10T01:09:32;23.50;80.40
17795;DHT22;9021;50.882;4.326;2023-06-10T01:12:19;23.40;81.80
17795;DHT22;9021;50.882;4.326;2023-06-10T01:14:45;23.40;81.00
17795;DHT22;9021;50.882;4.326;2023-06-10T01:17:12;23.30;81.70
17795;DHT22;9021;50.882;4.326;2023-06-10T01:19:37;23.30;82.60
17795;DHT22;9021;50.882;4.326;2023-06-10T01:22:03;23.30;81.50
17795;DHT22;9021;50.882;4.326;2023-06-10T01:24:29;23.20;82.00
17795;DHT22;9021;50.882;4.326;2023-06-10T01:26:59;23.20;82.20
17795;DHT22;9021;50.882;4.326;2023-06-10T01:29:30;23.20;82.30
17795;DHT22;9021;50.882;4.326;2023-06-10T01:32:01;23.20;82.80
17795;DHT22;9021;50.882;4.326;2023-06-10T01:34:29;23.20;82.90
17795;DHT22;9021;50.882;4.326;2023-06-10T01:36:56;23.10;83.30
17795;DHT22;9021;50.882;4.326;2023-06-10T01:39:23;23.10;83.60
17795;DHT22;9021;50.882;4.326;2023-06-10T01:41:49;23.00;83.20
17795;DHT22;9021;50.882;4.326;2023-06-10T01:44:18;23.00;83.60
17795;DHT22;9021;50.882;4.326;2023-06-10T01:46:45;23.00;83.80
17795;DHT22;9021;50.882;4.326;2023-06-10T01:51:55;22.90;83.90
17795;DHT22;9021;50.882;4.326;2023-06-10T01:54:33;23.10;83.70
17795;DHT22;9021;50.882;4.326;2023-06-10T02:00:19;22.70;84.00
17795;DHT22;9021;50.882;4.326;2023-06-10T02:02:44;23.20;85.40
17795;DHT22;9021;50.882;4.326;2023-06-10T02:05:10;22.70;85.20
17795;DHT22;9021;50.882;4.326;2023-06-10T02:07:35;22.70;85.30
17795;DHT22;9021;50.882;4.326;2023-06-10T02:10:01;22.70;85.80
17795;DHT22;9021;50.882;4.326;2023-06-10T02:12:26;22.60;86.30
17795;DHT22;9021;50.882;4.326;2023-06-10T02:14:52;22.60;86.10
17795;DHT22;9021;50.882;4.326;2023-06-10T02:17:17;22.60;86.50
17795;DHT22;9021;50.882;4.326;2023-06-10T02:19:43;22.60;87.00
17795;DHT22;9021;50.882;4.326;2023-06-10T02:22:09;22.50;87.40
17795;DHT22;9021;50.882;4.326;2023-06-10T02:24:37;22.50;87.10
17795;DHT22;9021;50.882;4.326;2023-06-10T02:27:04;22.50;86.40
17795;DHT22;9021;50.882;4.326;2023-06-10T02:29:33;22.50;85.80
17795;DHT22;9021;50.882;4.326;2023-06-10T02:32:02;22.50;86.80
17795;DHT22;9021;50.882;4.326;2023-06-10T02:34:35;22.30;86.30
17795;DHT22;9021;50.882;4.326;2023-06-10T02:37:17;22.30;85.20
17795;DHT22;9021;50.882;4.326;2023-06-10T02:39:46;22.30;84.80
17795;DHT22;9021;50.882;4.326;2023-06-10T02:42:34;23.00;84.70
17795;DHT22;9021;50.882;4.326;2023-06-10T02:47:37;22.40;86.00
17795;DHT22;9021;50.882;4.326;2023-06-10T02:50:03;25.40;86.30
17795;DHT22;9021;50.882;4.326;2023-06-10T02:52:29;22.10;84.80
17795;DHT22;9021;50.882;4.326;2023-06-10T02:54:55;22.10;85.00
17795;DHT22;9021;50.882;4.326;2023-06-10T02:57:20;22.20;84.80
17795;DHT22;9021;50.882;4.326;2023-06-10T02:59:46;22.20;84.60
17795;DHT22;9021;50.882;4.326;2023-06-10T03:02:12;22.10;84.70
17795;DHT22;9021;50.882;4.326;2023-06-10T03:04:37;22.10;84.70
17795;DHT22;9021;50.882;4.326;2023-06-10T03:07:03;22.10;84.70
17795;DHT22;9021;50.882;4.326;2023-06-10T03:09:29;21.90;85.50
17795;DHT22;9021;50.882;4.326;2023-06-10T03:11:54;21.80;85.70
17795;DHT22;9021;50.882;4.326;2023-06-10T03:14:20;21.80;86.00
17795;DHT22;9021;50.882;4.326;2023-06-10T03:16:46;21.80;85.90
17795;DHT22;9021;50.882;4.326;2023-06-10T03:19:11;21.90;86.10
17795;DHT22;9021;50.882;4.326;2023-06-10T03:21:37;21.90;86.00
17795;DHT22;9021;50.882;4.326;2023-06-10T03:24:03;21.80;86.00
17795;DHT22;9021;50.882;4.326;2023-06-10T03:26:28;21.90;85.90
17795;DHT22;9021;50.882;4.326;2023-06-10T03:28:54;21.90;85.90
17795;DHT22;9021;50.882;4.326;2023-06-10T03:31:19;22.00;85.60
17795;DHT22;9021;50.882;4.326;2023-06-10T03:33:54;18.70;84.40
17795;DHT22;9021;50.882;4.326;2023-06-10T03:36:29;21.90;86.40
17795;DHT22;9021;50.882;4.326;2023-06-10T03:39:08;22.10;86.60
17795;DHT22;9021;50.882;4.326;2023-06-10T03:41:36;24.20;87.80
17795;DHT22;9021;50.882;4.326;2023-06-10T03:44:02;21.80;86.60
17795;DHT22;9021;50.882;4.326;2023-06-10T03:46:29;22.00;86.70
17795;DHT22;9021;50.882;4.326;2023-06-10T03:48:55;21.80;86.80
17795;DHT22;9021;50.882;4.326;2023-06-10T03:51:24;21.80;87.00
17795;DHT22;9021;50.882;4.326;2023-06-10T03:53:49;21.80;86.90
17795;DHT22;9021;50.882;4.326;2023-06-10T03:56:15;21.80;87.10
17795;DHT22;9021;50.882;4.326;2023-06-10T03:58:40;21.70;87.40
17795;DHT22;9021;50.882;4.326;2023-06-10T04:01:06;21.80;87.50
17795;DHT22;9021;50.882;4.326;2023-06-10T04:03:32;21.70;87.60
17795;DHT22;9021;50.882;4.326;2023-06-10T04:05:58;21.70;87.50
17795;DHT22;9021;50.882;4.326;2023-06-10T04:08:24;21.80;87.70
17795;DHT22;9021;50.882;4.326;2023-06-10T04:10:49;21.70;87.80
17795;DHT22;9021;50.882;4.326;2023-06-10T04:13:14;21.80;87.80
17795;DHT22;9021;50.882;4.326;2023-06-10T04:15:40;21.80;88.00
17795;DHT22;9021;50.882;4.326;2023-06-10T04:18:05;21.80;87.80
17795;DHT22;9021;50.882;4.326;2023-06-10T04:20:31;21.80;88.00
17795;DHT22;9021;50.882;4.326;2023-06-10T04:22:56;21.90;88.20
17795;DHT22;9021;50.882;4.326;2023-06-10T04:25:22;21.90;88.10
17795;DHT22;9021;50.882;4.326;2023-06-10T04:27:48;21.80;88.40
17795;DHT22;9021;50.882;4.326;2023-06-10T04:30:13;21.70;88.50
17795;DHT22;9021;50.882;4.326;2023-06-10T04:32:39;21.70;88.80
17795;DHT22;9021;50.882;4.326;2023-06-10T04:35:05;21.70;88.90
17795;DHT22;9021;50.882;4.326;2023-06-10T04:37:30;21.70;88.90
17795;DHT22;9021;50.882;4.326;2023-06-10T04:39:56;21.80;88.90
17795;DHT22;9021;50.882;4.326;2023-06-10T04:42:22;21.80;89.00
17795;DHT22;9021;50.882;4.326;2023-06-10T04:44:48;21.90;89.20
17795;DHT22;9021;50.882;4.326;2023-06-10T04:47:13;21.90;89.80
17795;DHT22;9021;50.882;4.326;2023-06-10T04:49:39;21.90;89.50
17795;DHT22;9021;50.882;4.326;2023-06-10T04:52:04;22.00;89.60
17795;DHT22;9021;50.882;4.326;2023-06-10T04:54:30;21.20;88.80
17795;DHT22;9021;50.882;4.326;2023-06-10T04:56:55;22.10;90.00
17795;DHT22;9021;50.882;4.326;2023-06-10T04:59:21;22.10;89.70
17795;DHT22;9021;50.882;4.326;2023-06-10T05:01:46;22.10;89.90
17795;DHT22;9021;50.882;4.326;2023-06-10T05:04:12;22.10;90.10
17795;DHT22;9021;50.882;4.326;2023-06-10T05:06:37;22.00;89.70
17795;DHT22;9021;50.882;4.326;2023-06-10T05:09:03;22.10;90.00
17795;DHT22;9021;50.882;4.326;2023-06-10T05:11:28;22.10;90.10
17795;DHT22;9021;50.882;4.326;2023-06-10T05:13:54;22.00;90.10
17795;DHT22;9021;50.882;4.326;2023-06-10T05:16:19;22.10;90.30
17795;DHT22;9021;50.882;4.326;2023-06-10T05:18:45;22.30;90.60
17795;DHT22;9021;50.882;4.326;2023-06-10T05:21:11;22.30;90.50
17795;DHT22;9021;50.882;4.326;2023-06-10T05:23:36;22.40;90.00
17795;DHT22;9021;50.882;4.326;2023-06-10T05:26:02;22.50;89.90
17795;DHT22;9021;50.882;4.326;2023-06-10T05:28:27;22.60;90.00
17795;DHT22;9021;50.882;4.326;2023-06-10T05:30:53;22.60;89.30
17795;DHT22;9021;50.882;4.326;2023-06-10T05:33:18;22.60;89.40
17795;DHT22;9021;50.882;4.326;2023-06-10T05:35:44;22.60;89.30
17795;DHT22;9021;50.882;4.326;2023-06-10T05:38:10;22.70;89.70
17795;DHT22;9021;50.882;4.326;2023-06-10T05:40:38;22.80;90.10
17795;DHT22;9021;50.882;4.326;2023-06-10T05:43:06;22.90;90.10
17795;DHT22;9021;50.882;4.326;2023-06-10T05:45:34;22.80;88.70
17795;DHT22;9021;50.882;4.326;2023-06-10T05:48:03;22.80;89.00
17795;DHT22;9021;50.882;4.326;2023-06-10T05:50:28;22.80;89.90
17795;DHT22;9021;50.882;4.326;2023-06-10T05:52:54;22.90;88.50
17795;DHT22;9021;50.882;4.326;2023-06-10T05:55:20;22.90;88.70
17795;DHT22;9021;50.882;4.326;2023-06-10T05:57:45;22.90;88.40
17795;DHT22;9021;50.882;4.326;2023-06-10T06:00:11;22.90;88.60
17795;DHT22;9021;50.882;4.326;2023-06-10T06:02:37;23.00;88.00
17795;DHT22;9021;50.882;4.326;2023-06-10T06:05:02;23.00;88.60
17795;DHT22;9021;50.882;4.326;2023-06-10T06:07:28;23.00;88.20
17795;DHT22;9021;50.882;4.326;2023-06-10T06:09:59;23.10;88.10
17795;DHT22;9021;50.882;4.326;2023-06-10T06:12:27;23.20;87.90
17795;DHT22;9021;50.882;4.326;2023-06-10T06:14:55;23.30;87.70
17795;DHT22;9021;50.882;4.326;2023-06-10T06:17:21;23.20;88.60
17795;DHT22;9021;50.882;4.326;2023-06-10T06:19:46;23.20;88.20
17795;DHT22;9021;50.882;4.326;2023-06-10T06:22:13;23.50;87.40
17795;DHT22;9021;50.882;4.326;2023-06-10T06:24:38;23.60;86.50
17795;DHT22;9021;50.882;4.326;2023-06-10T06:27:04;23.40;87.20
17795;DHT22;9021;50.882;4.326;2023-06-10T06:29:30;23.20;87.20
17795;DHT22;9021;50.882;4.326;2023-06-10T06:31:55;23.30;87.70
17795;DHT22;9021;50.882;4.326;2023-06-10T06:34:21;23.50;87.10
17795;DHT22;9021;50.882;4.326;2023-06-10T06:36:46;23.60;87.00
17795;DHT22;9021;50.882;4.326;2023-06-10T06:39:12;23.40;87.20
17795;DHT22;9021;50.882;4.326;2023-06-10T06:41:37;23.80;86.30
17795;DHT22;9021;50.882;4.326;2023-06-10T06:44:03;22.10;85.20
17795;DHT22;9021;50.882;4.326;2023-06-10T06:46:28;24.10;86.90
17795;DHT22;9021;50.882;4.326;2023-06-10T06:48:54;24.50;85.20
17795;DHT22;9021;50.882;4.326;2023-06-10T06:51:19;25.10;83.20
17795;DHT22;9021;50.882;4.326;2023-06-10T06:53:45;25.60;81.70
17795;DHT22;9021;50.882;4.326;2023-06-10T06:56:11;26.00;80.20
17795;DHT22;9021;50.882;4.326;2023-06-10T06:58:36;27.30;78.20
17795;DHT22;9021;50.882;4.326;2023-06-10T07:01:02;27.80;76.40
17795;DHT22;9021;50.882;4.326;2023-06-10T07:03:28;28.50;75.20
17795;DHT22;9021;50.882;4.326;2023-06-10T07:05:53;29.10;74.60
17795;DHT22;9021;50.882;4.326;2023-06-10T07:08:19;30.50;73.00
17795;DHT22;9021;50.882;4.326;2023-06-10T07:10:44;31.30;71.00
17795;DHT22;9021;50.882;4.326;2023-06-10T07:13:10;31.80;70.70
17795;DHT22;9021;50.882;4.326;2023-06-10T07:15:35;32.50;68.30
17795;DHT22;9021;50.882;4.326;2023-06-10T07:18:01;33.20;66.40
17795;DHT22;9021;50.882;4.326;2023-06-10T07:20:26;33.70;66.20
17795;DHT22;9021;50.882;4.326;2023-06-10T07:22:52;33.50;65.90
17795;DHT22;9021;50.882;4.326;2023-06-10T07:25:17;34.10;65.50
17795;DHT22;9021;50.882;4.326;2023-06-10T07:27:43;34.50;64.50
17795;DHT22;9021;50.882;4.326;2023-06-10T07:30:08;34.70;63.70
17795;DHT22;9021;50.882;4.326;2023-06-10T07:32:34;35.40;62.70
17795;DHT22;9021;50.882;4.326;2023-06-10T07:35:00;35.60;62.20
17795;DHT22;9021;50.882;4.326;2023-06-10T07:37:25;36.40;62.00
17795;DHT22;9021;50.882;4.326;2023-06-10T07:39:51;36.80;60.30
17795;DHT22;9021;50.882;4.326;2023-06-10T07:42:16;36.10;60.00
17795;DHT22;9021;50.882;4.326;2023-06-10T07:44:42;35.40;60.90
17795;DHT22;9021;50.882;4.326;2023-06-10T07:47:07;35.10;61.20
17795;DHT22;9021;50.882;4.326;2023-06-10T07:49:33;35.00;61.00
17795;DHT22;9021;50.882;4.326;2023-06-10T07:51:58;36.20;60.50
17795;DHT22;9021;50.882;4.326;2023-06-10T07:54:24;36.50;59.80
17795;DHT22;9021;50.882;4.326;2023-06-10T07:56:55;36.30;59.40
17795;DHT22;9021;50.882;4.326;2023-06-10T07:59:20;37.40;59.50
17795;DHT22;9021;50.882;4.326;2023-06-10T08:01:46;37.80;58.60
17795;DHT22;9021;50.882;4.326;2023-06-10T08:04:11;38.10;58.30
17795;DHT22;9021;50.882;4.326;2023-06-10T08:06:37;37.60;57.90
17795;DHT22;9021;50.882;4.326;2023-06-10T08:09:03;37.90;58.50
17795;DHT22;9021;50.882;4.326;2023-06-10T08:11:28;38.10;58.20
17795;DHT22;9021;50.882;4.326;2023-06-10T08:13:55;37.40;57.50
17795;DHT22;9021;50.882;4.326;2023-06-10T08:16:20;37.80;57.90
17795;DHT22;9021;50.882;4.326;2023-06-10T08:18:46;37.90;56.90
17795;DHT22;9021;50.882;4.326;2023-06-10T08:21:11;37.00;57.00
17795;DHT22;9021;50.882;4.326;2023-06-10T08:23:37;37.80;57.80
17795;DHT22;9021;50.882;4.326;2023-06-10T08:26:02;38.50;57.80
17795;DHT22;9021;50.882;4.326;2023-06-10T08:28:27;37.90;57.20
17795;DHT22;9021;50.882;4.326;2023-06-10T08:30:53;38.10;57.00
17795;DHT22;9021;50.882;4.326;2023-06-10T08:33:18;38.20;56.80
17795;DHT22;9021;50.882;4.326;2023-06-10T08:35:44;38.10;56.90
17795;DHT22;9021;50.882;4.326;2023-06-10T08:38:09;38.10;56.30
17795;DHT22;9021;50.882;4.326;2023-06-10T08:40:35;37.90;56.90
17795;DHT22;9021;50.882;4.326;2023-06-10T08:43:07;37.80;57.10
17795;DHT22;9021;50.882;4.326;2023-06-10T08:45:36;38.30;56.60
17795;DHT22;9021;50.882;4.326;2023-06-10T08:48:05;38.70;56.90
17795;DHT22;9021;50.882;4.326;2023-06-10T08:50:35;38.90;56.20
17795;DHT22;9021;50.882;4.326;2023-06-10T08:53:01;38.60;55.50
17795;DHT22;9021;50.882;4.326;2023-06-10T08:55:36;38.40;56.00
17795;DHT22;9021;50.882;4.326;2023-06-10T08:58:01;39.20;55.70
17795;DHT22;9021;50.882;4.326;2023-06-10T09:00:28;39.00;55.80
17795;DHT22;9021;50.882;4.326;2023-06-10T09:02:54;39.10;55.70
17795;DHT22;9021;50.882;4.326;2023-06-10T09:05:19;38.90;56.10
17795;DHT22;9021;50.882;4.326;2023-06-10T09:07:45;40.10;55.50
17795;DHT22;9021;50.882;4.326;2023-06-10T09:10:11;39.30;55.80
17795;DHT22;9021;50.882;4.326;2023-06-10T09:12:36;39.60;54.90
17795;DHT22;9021;50.882;4.326;2023-06-10T09:15:03;39.70;54.20
17795;DHT22;9021;50.882;4.326;2023-06-10T09:17:29;40.20;54.50
17795;DHT22;9021;50.882;4.326;2023-06-10T09:19:55;40.40;53.80
17795;DHT22;9021;50.882;4.326;2023-06-10T09:22:22;39.70;54.50
17795;DHT22;9021;50.882;4.326;2023-06-10T09:24:48;41.30;54.40
17795;DHT22;9021;50.882;4.326;2023-06-10T09:27:14;40.50;53.90
17795;DHT22;9021;50.882;4.326;2023-06-10T09:29:55;39.70;53.70
17795;DHT22;9021;50.882;4.326;2023-06-10T09:32:21;39.80;54.20
17795;DHT22;9021;50.882;4.326;2023-06-10T09:34:46;39.80;54.60
17795;DHT22;9021;50.882;4.326;2023-06-10T09:37:12;40.40;53.40
17795;DHT22;9021;50.882;4.326;2023-06-10T09:39:39;41.20;53.20
17795;DHT22;9021;50.882;4.326;2023-06-10T09:42:17;41.80;53.40
17795;DHT22;9021;50.882;4.326;2023-06-10T09:44:48;41.50;52.50
17795;DHT22;9021;50.882;4.326;2023-06-10T09:47:19;40.80;53.10
17795;DHT22;9021;50.882;4.326;2023-06-10T09:49:45;40.90;53.10
17795;DHT22;9021;50.882;4.326;2023-06-10T09:52:10;42.20;52.40
17795;DHT22;9021;50.882;4.326;2023-06-10T09:54:35;43.10;51.50
17795;DHT22;9021;50.882;4.326;2023-06-10T09:57:01;41.40;51.70
17795;DHT22;9021;50.882;4.326;2023-06-10T09:59:31;41.50;52.30
17795;DHT22;9021;50.882;4.326;2023-06-10T10:01:57;40.10;52.40
17795;DHT22;9021;50.882;4.326;2023-06-10T10:04:26;39.40;53.20
17795;DHT22;9021;50.882;4.326;2023-06-10T10:06:52;41.20;55.00
17795;DHT22;9021;50.882;4.326;2023-06-10T10:09:17;39.80;53.00
17795;DHT22;9021;50.882;4.326;2023-06-10T10:11:43;39.00;53.20
17795;DHT22;9021;50.882;4.326;2023-06-10T10:14:09;38.90;52.90
17795;DHT22;9021;50.882;4.326;2023-06-10T10:16:39;39.00;53.00
17795;DHT22;9021;50.882;4.326;2023-06-10T10:19:40;39.30;52.60
17795;DHT22;9021;50.882;4.326;2023-06-10T10:22:06;39.00;53.00
17795;DHT22;9021;50.882;4.326;2023-06-10T10:24:36;39.50;52.20
17795;DHT22;9021;50.882;4.326;2023-06-10T10:27:05;38.60;52.50
17795;DHT22;9021;50.882;4.326;2023-06-10T10:29:35;39.70;51.80
17795;DHT22;9021;50.882;4.326;2023-06-10T10:32:01;39.70;52.10
17795;DHT22;9021;50.882;4.326;2023-06-10T10:34:34;40.70;50.50
17795;DHT22;9021;50.882;4.326;2023-06-10T10:37:02;41.40;50.70
17795;DHT22;9021;50.882;4.326;2023-06-10T10:39:28;41.20;50.40
17795;DHT22;9021;50.882;4.326;2023-06-10T10:41:54;41.40;50.40
17795;DHT22;9021;50.882;4.326;2023-06-10T10:44:21;42.30;49.90
17795;DHT22;9021;50.882;4.326;2023-06-10T10:46:49;41.30;49.70
17795;DHT22;9021;50.882;4.326;2023-06-10T10:49:15;40.10;50.40
17795;DHT22;9021;50.882;4.326;2023-06-10T10:51:55;39.70;50.70
17795;DHT22;9021;50.882;4.326;2023-06-10T10:54:28;39.70;50.20
17795;DHT22;9021;50.882;4.326;2023-06-10T10:57:09;40.00;49.50
17795;DHT22;9021;50.882;4.326;2023-06-10T11:02:09;38.90;49.50
17795;DHT22;9021;50.882;4.326;2023-06-10T11:04:35;39.30;49.80
17795;DHT22;9021;50.882;4.326;2023-06-10T11:07:07;38.60;49.50
17795;DHT22;9021;50.882;4.326;2023-06-10T11:09:32;38.40;49.60
17795;DHT22;9021;50.882;4.326;2023-06-10T11:11:58;39.00;50.20
17795;DHT22;9021;50.882;4.326;2023-06-10T11:14:28;39.70;48.60
17795;DHT22;9021;50.882;4.326;2023-06-10T11:16:56;39.70;49.10
17795;DHT22;9021;50.882;4.326;2023-06-10T11:19:32;39.90;49.20
17795;DHT22;9021;50.882;4.326;2023-06-10T11:21:59;39.90;48.90
17795;DHT22;9021;50.882;4.326;2023-06-10T11:24:25;39.90;49.40
17795;DHT22;9021;50.882;4.326;2023-06-10T11:26:51;39.90;48.70
17795;DHT22;9021;50.882;4.326;2023-06-10T11:29:16;39.70;48.90
17795;DHT22;9021;50.882;4.326;2023-06-10T11:31:43;38.90;49.20
17795;DHT22;9021;50.882;4.326;2023-06-10T11:34:09;39.40;49.30
17795;DHT22;9021;50.882;4.326;2023-06-10T11:36:40;40.50;49.20
17795;DHT22;9021;50.882;4.326;2023-06-10T11:39:10;40.20;50.00
17795;DHT22;9021;50.882;4.326;2023-06-10T11:41:37;39.40;49.90
17795;DHT22;9021;50.882;4.326;2023-06-10T11:44:04;38.20;50.50
17795;DHT22;9021;50.882;4.326;2023-06-10T11:46:29;38.30;50.20
17795;DHT22;9021;50.882;4.326;2023-06-10T11:48:56;39.30;50.00
17795;DHT22;9021;50.882;4.326;2023-06-10T11:51:24;39.10;50.90
17795;DHT22;9021;50.882;4.326;2023-06-10T11:53:50;38.60;50.60
17795;DHT22;9021;50.882;4.326;2023-06-10T11:56:19;38.20;51.20
17795;DHT22;9021;50.882;4.326;2023-06-10T11:58:45;37.80;50.80
17795;DHT22;9021;50.882;4.326;2023-06-10T12:01:10;37.10;51.40
17795;DHT22;9021;50.882;4.326;2023-06-10T12:03:36;37.40;50.60
17795;DHT22;9021;50.882;4.326;2023-06-10T12:06:03;37.70;50.20
17795;DHT22;9021;50.882;4.326;2023-06-10T12:08:29;37.80;50.30
17795;DHT22;9021;50.882;4.326;2023-06-10T12:10:55;38.10;51.20
17795;DHT22;9021;50.882;4.326;2023-06-10T12:13:22;38.20;50.30
17795;DHT22;9021;50.882;4.326;2023-06-10T12:15:49;38.20;50.70
17795;DHT22;9021;50.882;4.326;2023-06-10T12:18:18;37.90;51.30
17795;DHT22;9021;50.882;4.326;2023-06-10T12:20:44;38.20;51.40
17795;DHT22;9021;50.882;4.326;2023-06-10T12:23:10;38.10;51.60
17795;DHT22;9021;50.882;4.326;2023-06-10T12:25:35;38.10;51.10
17795;DHT22;9021;50.882;4.326;2023-06-10T12:28:04;37.40;52.10
17795;DHT22;9021;50.882;4.326;2023-06-10T12:30:30;36.90;53.10
17795;DHT22;9021;50.882;4.326;2023-06-10T12:32:56;37.20;52.50
17795;DHT22;9021;50.882;4.326;2023-06-10T12:35:22;37.40;52.70
17795;DHT22;9021;50.882;4.326;2023-06-10T12:38:09;37.10;52.80
17795;DHT22;9021;50.882;4.326;2023-06-10T12:40:37;36.50;52.90
17795;DHT22;9021;50.882;4.326;2023-06-10T12:43:05;35.50;53.10
17795;DHT22;9021;50.882;4.326;2023-06-10T12:45:37;35.10;52.80
17795;DHT22;9021;50.882;4.326;2023-06-10T12:48:23;34.50;54.00
17795;DHT22;9021;50.882;4.326;2023-06-10T12:50:52;34.70;54.40
17795;DHT22;9021;50.882;4.326;2023-06-10T12:53:18;34.20;54.10
17795;DHT22;9021;50.882;4.326;2023-06-10T12:55:45;34.50;54.30
17795;DHT22;9021;50.882;4.326;2023-06-10T12:58:11;34.70;54.00
17795;DHT22;9021;50.882;4.326;2023-06-10T13:00:36;34.90;53.20
17795;DHT22;9021;50.882;4.326;2023-06-10T13:03:02;34.90;53.60
17795;DHT22;9021;50.882;4.326;2023-06-10T13:05:28;34.90;53.30
17795;DHT22;9021;50.882;4.326;2023-06-10T13:07:54;34.90;53.60
17795;DHT22;9021;50.882;4.326;2023-06-10T13:10:20;34.80;53.40
17795;DHT22;9021;50.882;4.326;2023-06-10T13:12:45;34.80;55.00
17795;DHT22;9021;50.882;4.326;2023-06-10T13:15:12;34.90;53.30
17795;DHT22;9021;50.882;4.326;2023-06-10T13:17:37;34.90;54.10
17795;DHT22;9021;50.882;4.326;2023-06-10T13:20:03;34.90;54.70
17795;DHT22;9021;50.882;4.326;2023-06-10T13:22:30;34.90;54.00
17795;DHT22;9021;50.882;4.326;2023-06-10T13:25:06;34.20;53.30
17795;DHT22;9021;50.882;4.326;2023-06-10T13:27:33;34.30;54.50
17795;DHT22;9021;50.882;4.326;2023-06-10T13:29:59;34.60;53.90
17795;DHT22;9021;50.882;4.326;2023-06-10T13:32:24;34.60;54.20
17795;DHT22;9021;50.882;4.326;2023-06-10T13:34:50;34.40;54.50
17795;DHT22;9021;50.882;4.326;2023-06-10T13:37:16;34.30;54.00
17795;DHT22;9021;50.882;4.326;2023-06-10T13:39:44;33.70;54.00
17795;DHT22;9021;50.882;4.326;2023-06-10T13:42:10;33.30;54.40
17795;DHT22;9021;50.882;4.326;2023-06-10T13:44:36;32.90;55.00
17795;DHT22;9021;50.882;4.326;2023-06-10T13:47:02;32.90;54.90
17795;DHT22;9021;50.882;4.326;2023-06-10T13:49:28;33.00;55.00
17795;DHT22;9021;50.882;4.326;2023-06-10T13:51:53;33.30;54.50
17795;DHT22;9021;50.882;4.326;2023-06-10T13:54:19;33.30;54.80
17795;DHT22;9021;50.882;4.326;2023-06-10T13:56:45;33.20;54.90
17795;DHT22;9021;50.882;4.326;2023-06-10T13:59:10;33.20;54.20
17795;DHT22;9021;50.882;4.326;2023-06-10T14:01:36;33.20;54.20
17795;DHT22;9021;50.882;4.326;2023-06-10T14:04:02;33.70;55.20
17795;DHT22;9021;50.882;4.326;2023-06-10T14:06:28;34.10;54.20
17795;DHT22;9021;50.882;4.326;2023-06-10T14:08:53;34.20;54.80
17795;DHT22;9021;50.882;4.326;2023-06-10T14:11:20;34.20;53.50
17795;DHT22;9021;50.882;4.326;2023-06-10T14:13:46;34.30;53.90
17795;DHT22;9021;50.882;4.326;2023-06-10T14:16:11;34.10;53.90
17795;DHT22;9021;50.882;4.326;2023-06-10T14:18:37;33.80;54.00
17795;DHT22;9021;50.882;4.326;2023-06-10T14:21:03;33.80;54.30
17795;DHT22;9021;50.882;4.326;2023-06-10T14:23:31;33.80;54.60
17795;DHT22;9021;50.882;4.326;2023-06-10T14:25:56;33.80;54.10
17795;DHT22;9021;50.882;4.326;2023-06-10T14:28:28;33.70;53.80
17795;DHT22;9021;50.882;4.326;2023-06-10T14:30:54;33.70;54.00
17795;DHT22;9021;50.882;4.326;2023-06-10T14:33:20;33.70;54.40
17795;DHT22;9021;50.882;4.326;2023-06-10T14:35:45;33.80;54.60
17795;DHT22;9021;50.882;4.326;2023-06-10T14:38:11;33.90;54.70
17795;DHT22;9021;50.882;4.326;2023-06-10T14:40:36;33.70;53.90
17795;DHT22;9021;50.882;4.326;2023-06-10T14:43:02;33.40;54.20
17795;DHT22;9021;50.882;4.326;2023-06-10T14:45:29;33.40;54.80
17795;DHT22;9021;50.882;4.326;2023-06-10T14:47:55;32.90;54.60
17795;DHT22;9021;50.882;4.326;2023-06-10T14:50:20;32.70;54.60
17795;DHT22;9021;50.882;4.326;2023-06-10T14:52:50;32.50;55.10
17795;DHT22;9021;50.882;4.326;2023-06-10T14:55:18;32.80;55.20
17795;DHT22;9021;50.882;4.326;2023-06-10T14:57:44;33.00;55.60
17795;DHT22;9021;50.882;4.326;2023-06-10T15:00:10;33.00;54.60
17795;DHT22;9021;50.882;4.326;2023-06-10T15:02:44;33.00;54.70
17795;DHT22;9021;50.882;4.326;2023-06-10T15:05:12;33.00;54.20
17795;DHT22;9021;50.882;4.326;2023-06-10T15:07:37;33.10;54.50
17795;DHT22;9021;50.882;4.326;2023-06-10T15:10:03;33.20;54.20
17795;DHT22;9021;50.882;4.326;2023-06-10T15:12:28;33.40;54.00
17795;DHT22;9021;50.882;4.326;2023-06-10T15:14:54;33.80;54.40
17795;DHT22;9021;50.882;4.326;2023-06-10T15:17:19;33.30;53.70
17795;DHT22;9021;50.882;4.326;2023-06-10T15:19:45;33.20;54.40
17795;DHT22;9021;50.882;4.326;2023-06-10T15:22:10;33.30;54.30
17795;DHT22;9021;50.882;4.326;2023-06-10T15:24:38;33.40;54.20
17795;DHT22;9021;50.882;4.326;2023-06-10T15:27:04;33.50;54.00
17795;DHT22;9021;50.882;4.326;2023-06-10T15:29:29;33.50;54.10
17795;DHT22;9021;50.882;4.326;2023-06-10T15:31:55;33.40;53.80
17795;DHT22;9021;50.882;4.326;2023-06-10T15:34:20;33.30;54.50
17795;DHT22;9021;50.882;4.326;2023-06-10T15:36:45;33.50;54.20
17795;DHT22;9021;50.882;4.326;2023-06-10T15:39:11;33.60;54.30
17795;DHT22;9021;50.882;4.326;2023-06-10T15:41:37;33.30;53.80
17795;DHT22;9021;50.882;4.326;2023-06-10T15:44:02;33.40;54.40
17795;DHT22;9021;50.882;4.326;2023-06-10T15:46:29;33.50;54.00
17795;DHT22;9021;50.882;4.326;2023-06-10T15:48:55;33.50;54.10
17795;DHT22;9021;50.882;4.326;2023-06-10T15:51:20;33.40;53.70
17795;DHT22;9021;50.882;4.326;2023-06-10T15:53:45;33.40;54.00
17795;DHT22;9021;50.882;4.326;2023-06-10T15:56:12;33.30;53.70